sensor_id;sensor_type;location;lat;lon;timestamp;pressure;altitude;pressure_sealevel;temperature;humidity
73700;BME280;62005;50.082;8.988;2023-04-24T00:00:48;99330.94;;;13.17;80.37
73700;BME280;62005;50.082;8.988;2023-04-24T00:03:50;99288.47;;;12.90;80.25
73700;BME280;62005;50.082;8.988;2023-04-24T00:06:16;99284.06;;;12.84;79.62
73700;BME280;62005;50.082;8.988;2023-04-24T00:11:54;99322.25;;;13.15;79.88
73700;BME280;62005;50.082;8.988;2023-04-24T00:26:36;99299.94;;;13.07;79.19
73700;BME280;62005;50.082;8.988;2023-04-24T00:32:34;99299.38;;;13.00;80.39
73700;BME280;62005;50.082;8.988;2023-04-24T00:34:59;99288.50;;;13.00;80.14
73700;BME280;62005;50.082;8.988;2023-04-24T00:37:24;99281.69;;;12.93;80.25
73700;BME280;62005;50.082;8.988;2023-04-24T00:40:26;99291.78;;;13.02;80.62
73700;BME280;62005;50.082;8.988;2023-04-24T00:43:32;99215.66;;;12.62;79.86
73700;BME280;62005;50.082;8.988;2023-04-24T00:45:58;99243.91;;;12.76;79.57
73700;BME280;62005;50.082;8.988;2023-04-24T00:51:52;99271.59;;;12.83;79.47
73700;BME280;62005;50.082;8.988;2023-04-24T01:01:09;99254.22;;;12.79;79.36
73700;BME280;62005;50.082;8.988;2023-04-24T01:03:37;99282.50;;;12.93;79.04
73700;BME280;62005;50.082;8.988;2023-04-24T01:16:16;99271.59;;;12.83;79.29
73700;BME280;62005;50.082;8.988;2023-04-24T01:18:43;99263.44;;;12.78;79.93
73700;BME280;62005;50.082;8.988;2023-04-24T01:21:09;99275.41;;;12.82;79.69
73700;BME280;62005;50.082;8.988;2023-04-24T01:27:19;99225.91;;;12.55;79.75
73700;BME280;62005;50.082;8.988;2023-04-24T01:29:45;99209.59;;;12.45;80.06
73700;BME280;62005;50.082;8.988;2023-04-24T01:32:34;99273.22;;;12.84;80.68
73700;BME280;62005;50.082;8.988;2023-04-24T01:35:31;99272.91;;;12.76;80.12
73700;BME280;62005;50.082;8.988;2023-04-24T01:41:32;99273.47;;;12.78;80.30
73700;BME280;62005;50.082;8.988;2023-04-24T01:44:27;99219.31;;;12.41;79.81
73700;BME280;62005;50.082;8.988;2023-04-24T01:46:54;99236.22;;;12.58;79.70
73700;BME280;62005;50.082;8.988;2023-04-24T01:49:20;99191.09;;;12.32;79.85
73700;BME280;62005;50.082;8.988;2023-04-24T01:55:16;99268.88;;;12.78;79.46
73700;BME280;62005;50.082;8.988;2023-04-24T01:57:55;99204.69;;;12.42;79.42
73700;BME280;62005;50.082;8.988;2023-04-24T02:00:43;99254.16;;;12.69;79.59
73700;BME280;62005;50.082;8.988;2023-04-24T02:03:09;99229.19;;;12.57;79.57
73700;BME280;62005;50.082;8.988;2023-04-24T02:05:49;99186.72;;;12.31;78.92
73700;BME280;62005;50.082;8.988;2023-04-24T02:08:32;99192.72;;;12.33;79.64
73700;BME280;62005;50.082;8.988;2023-04-24T02:11:00;99255.00;;;12.70;79.99
73700;BME280;62005;50.082;8.988;2023-04-24T02:13:45;99187.53;;;12.27;79.50
73700;BME280;62005;50.082;8.988;2023-04-24T02:16:10;99204.09;;;12.35;79.54
73700;BME280;62005;50.082;8.988;2023-04-24T02:19:02;99180.75;;;12.24;79.33
73700;BME280;62005;50.082;8.988;2023-04-24T02:24:39;99208.47;;;12.41;79.45
73700;BME280;62005;50.082;8.988;2023-04-24T02:27:13;99212.84;;;12.47;78.84
73700;BME280;62005;50.082;8.988;2023-04-24T02:29:39;99180.22;;;12.27;79.18
73700;BME280;62005;50.082;8.988;2023-04-24T02:32:05;99184.56;;;12.33;78.94
73700;BME280;62005;50.082;8.988;2023-04-24T02:34:39;99248.25;;;12.72;79.13
73700;BME280;62005;50.082;8.988;2023-04-24T02:37:07;99215.03;;;12.50;78.76
73700;BME280;62005;50.082;8.988;2023-04-24T02:39:35;99247.13;;;12.68;79.23
73700;BME280;62005;50.082;8.988;2023-04-24T02:42:03;99192.22;;;12.41;78.89
73700;BME280;62005;50.082;8.988;2023-04-24T02:45:09;99181.84;;;12.28;79.30
73700;BME280;62005;50.082;8.988;2023-04-24T02:48:03;99222.09;;;12.56;78.37
73700;BME280;62005;50.082;8.988;2023-04-24T02:50:44;99225.91;;;12.55;78.85
73700;BME280;62005;50.082;8.988;2023-04-24T02:53:27;99225.38;;;12.58;78.90
73700;BME280;62005;50.082;8.988;2023-04-24T02:56:21;99198.16;;;12.38;78.98
73700;BME280;62005;50.082;8.988;2023-04-24T02:58:47;99211.22;;;12.46;78.55
73700;BME280;62005;50.082;8.988;2023-04-24T03:01:12;99248.47;;;12.66;78.44
73700;BME280;62005;50.082;8.988;2023-04-24T03:03:43;99260.69;;;12.73;78.41
73700;BME280;62005;50.082;8.988;2023-04-24T03:06:12;99260.16;;;12.76;78.37
73700;BME280;62005;50.082;8.988;2023-04-24T03:08:40;99213.91;;;12.46;78.19
73700;BME280;62005;50.082;8.988;2023-04-24T03:11:08;99216.66;;;12.51;77.62
73700;BME280;62005;50.082;8.988;2023-04-24T03:13:40;99238.38;;;12.56;76.91
73700;BME280;62005;50.082;8.988;2023-04-24T03:16:05;99187.25;;;12.28;76.88
73700;BME280;62005;50.082;8.988;2023-04-24T03:18:42;99184.28;;;12.30;76.97
73700;BME280;62005;50.082;8.988;2023-04-24T03:24:28;99210.72;;;12.49;76.71
73700;BME280;62005;50.082;8.988;2023-04-24T03:26:56;99209.03;;;12.43;76.95
73700;BME280;62005;50.082;8.988;2023-04-24T03:29:28;99227.22;;;12.53;76.83
73700;BME280;62005;50.082;8.988;2023-04-24T03:31:53;99227.00;;;12.54;76.97
73700;BME280;62005;50.082;8.988;2023-04-24T03:34:19;99248.69;;;12.59;76.94
73700;BME280;62005;50.082;8.988;2023-04-24T03:36:47;99206.84;;;12.40;77.18
73700;BME280;62005;50.082;8.988;2023-04-24T03:39:15;99266.13;;;12.73;77.27
73700;BME280;62005;50.082;8.988;2023-04-24T03:41:40;99232.38;;;12.49;77.06
73700;BME280;62005;50.082;8.988;2023-04-24T03:44:06;99261.75;;;12.67;76.40
73700;BME280;62005;50.082;8.988;2023-04-24T03:46:40;99282.97;;;12.80;76.30
73700;BME280;62005;50.082;8.988;2023-04-24T03:49:14;99238.38;;;12.56;77.35
73700;BME280;62005;50.082;8.988;2023-04-24T03:51:40;99276.44;;;12.76;78.01
73700;BME280;62005;50.082;8.988;2023-04-24T03:54:05;99264.44;;;12.62;77.87
73700;BME280;62005;50.082;8.988;2023-04-24T03:57:00;99256.81;;;12.54;78.48
73700;BME280;62005;50.082;8.988;2023-04-24T03:59:26;99292.69;;;12.71;78.68
73700;BME280;62005;50.082;8.988;2023-04-24T04:01:52;99286.69;;;12.69;78.60
73700;BME280;62005;50.082;8.988;2023-04-24T04:07:53;99279.00;;;12.51;78.44
73700;BME280;62005;50.082;8.988;2023-04-24T04:10:47;99303.44;;;12.56;78.71
73700;BME280;62005;50.082;8.988;2023-04-24T04:13:30;99318.66;;;12.62;79.26
73700;BME280;62005;50.082;8.988;2023-04-24T04:19:46;99283.81;;;12.39;79.72
73700;BME280;62005;50.082;8.988;2023-04-24T04:25:45;99258.69;;;12.12;78.87
73700;BME280;62005;50.082;8.988;2023-04-24T04:28:20;99308.72;;;12.36;79.62
73700;BME280;62005;50.082;8.988;2023-04-24T04:30:46;99327.22;;;12.44;79.21
73700;BME280;62005;50.082;8.988;2023-04-24T04:33:25;99332.66;;;12.44;79.85
73700;BME280;62005;50.082;8.988;2023-04-24T04:42:55;99331.97;;;12.27;80.19
73700;BME280;62005;50.082;8.988;2023-04-24T04:45:32;99349.31;;;12.31;79.87
73700;BME280;62005;50.082;8.988;2023-04-24T04:52:26;99271.13;;;11.76;80.09
73700;BME280;62005;50.082;8.988;2023-04-24T04:55:03;99261.31;;;11.70;79.79
73700;BME280;62005;50.082;8.988;2023-04-24T04:57:42;99341.56;;;12.13;79.67
73700;BME280;62005;50.082;8.988;2023-04-24T05:03:28;99368.09;;;12.06;79.74
73700;BME280;62005;50.082;8.988;2023-04-24T05:09:43;99356.06;;;11.97;80.27
73700;BME280;62005;50.082;8.988;2023-04-24T05:12:38;99314.09;;;11.68;79.56
73700;BME280;62005;50.082;8.988;2023-04-24T05:25:39;99392.75;;;12.41;78.64
73700;BME280;62005;50.082;8.988;2023-04-24T05:28:24;99392.84;;;12.51;77.91
73700;BME280;62005;50.082;8.988;2023-04-24T05:30:54;99391.63;;;12.64;77.44
73700;BME280;62005;50.082;8.988;2023-04-24T05:36:39;99326.09;;;12.40;75.89
73700;BME280;62005;50.082;8.988;2023-04-24T05:45:26;99330.78;;;12.96;71.04
73700;BME280;62005;50.082;8.988;2023-04-24T05:48:09;99369.56;;;13.34;70.38
73700;BME280;62005;50.082;8.988;2023-04-24T05:50:34;99370.97;;;13.51;69.45
73700;BME280;62005;50.082;8.988;2023-04-24T05:53:07;99386.25;;;13.67;67.90
73700;BME280;62005;50.082;8.988;2023-04-24T05:55:59;99369.16;;;13.82;67.89
73700;BME280;62005;50.082;8.988;2023-04-24T05:58:27;99382.81;;;14.02;65.86
73700;BME280;62005;50.082;8.988;2023-04-24T06:04:14;99378.53;;;14.36;65.93
73700;BME280;62005;50.082;8.988;2023-04-24T06:06:57;99368.47;;;14.47;66.67
73700;BME280;62005;50.082;8.988;2023-04-24T06:09:25;99429.63;;;14.99;64.68
73700;BME280;62005;50.082;8.988;2023-04-24T06:11:51;99428.56;;;15.10;65.87
73700;BME280;62005;50.082;8.988;2023-04-24T06:14:23;99384.47;;;14.93;65.31
73700;BME280;62005;50.082;8.988;2023-04-24T06:24:00;99379.97;;;15.52;63.09
73700;BME280;62005;50.082;8.988;2023-04-24T06:29:41;99406.97;;;16.08;60.34
73700;BME280;62005;50.082;8.988;2023-04-24T06:32:16;99390.53;;;16.18;59.03
73700;BME280;62005;50.082;8.988;2023-04-24T06:38:17;99394.13;;;16.52;58.91
73700;BME280;62005;50.082;8.988;2023-04-24T06:41:04;99381.38;;;16.42;54.85
73700;BME280;62005;50.082;8.988;2023-04-24T06:43:46;99386.53;;;16.49;54.29
73700;BME280;62005;50.082;8.988;2023-04-24T06:46:55;99457.47;;;16.82;53.29
73700;BME280;62005;50.082;8.988;2023-04-24T06:49:21;99406.16;;;16.51;53.48
73700;BME280;62005;50.082;8.988;2023-04-24T06:51:46;99427.91;;;16.61;52.75
73700;BME280;62005;50.082;8.988;2023-04-24T06:54:17;99445.00;;;16.71;53.14
73700;BME280;62005;50.082;8.988;2023-04-24T06:57:05;99420.00;;;16.59;52.76
73700;BME280;62005;50.082;8.988;2023-04-24T06:59:55;99459.38;;;16.87;52.68
73700;BME280;62005;50.082;8.988;2023-04-24T07:02:23;99463.63;;;16.98;53.01
73700;BME280;62005;50.082;8.988;2023-04-24T07:05:08;99430.41;;;16.86;54.23
73700;BME280;62005;50.082;8.988;2023-04-24T07:08:16;99408.91;;;16.79;50.48
73700;BME280;62005;50.082;8.988;2023-04-24T07:11:08;99457.59;;;17.01;51.31
73700;BME280;62005;50.082;8.988;2023-04-24T07:13:33;99420.16;;;16.73;51.02
73700;BME280;62005;50.082;8.988;2023-04-24T07:16:05;99479.44;;;17.01;51.07
73700;BME280;62005;50.082;8.988;2023-04-24T07:18:35;99463.41;;;16.89;52.98
73700;BME280;62005;50.082;8.988;2023-04-24T07:21:01;99481.91;;;16.98;53.06
73700;BME280;62005;50.082;8.988;2023-04-24T07:24:26;99421.88;;;16.64;51.10
73700;BME280;62005;50.082;8.988;2023-04-24T07:27:32;99453.41;;;16.80;50.96
73700;BME280;62005;50.082;8.988;2023-04-24T07:36:29;99441.78;;;16.98;52.35
73700;BME280;62005;50.082;8.988;2023-04-24T07:39:00;99457.94;;;17.23;53.73
73700;BME280;62005;50.082;8.988;2023-04-24T07:41:25;99464.34;;;17.37;53.25
73700;BME280;62005;50.082;8.988;2023-04-24T07:51:06;99471.28;;;17.58;51.54
73700;BME280;62005;50.082;8.988;2023-04-24T07:54:07;99420.19;;;17.30;50.24
73700;BME280;62005;50.082;8.988;2023-04-24T07:57:21;99474.41;;;17.70;49.61
73700;BME280;62005;50.082;8.988;2023-04-24T07:59:54;99468.97;;;17.65;51.61
73700;BME280;62005;50.082;8.988;2023-04-24T08:05:37;99414.34;;;17.13;48.33
73700;BME280;62005;50.082;8.988;2023-04-24T08:08:42;99441.84;;;17.22;48.98
73700;BME280;62005;50.082;8.988;2023-04-24T08:11:20;99445.94;;;17.19;49.32
73700;BME280;62005;50.082;8.988;2023-04-24T08:20:42;99463.13;;;17.53;49.03
73700;BME280;62005;50.082;8.988;2023-04-24T08:29:22;99463.25;;;17.38;49.13
73700;BME280;62005;50.082;8.988;2023-04-24T08:32:08;99471.53;;;17.28;48.42
73700;BME280;62005;50.082;8.988;2023-04-24T08:38:22;99463.50;;;16.46;46.82
73700;BME280;62005;50.082;8.988;2023-04-24T08:40:49;99473.28;;;16.42;47.96
73700;BME280;62005;50.082;8.988;2023-04-24T08:43:38;99479.34;;;16.34;49.04
73700;BME280;62005;50.082;8.988;2023-04-24T08:46:42;99515.25;;;16.61;49.77
73700;BME280;62005;50.082;8.988;2023-04-24T08:49:26;99484.22;;;16.37;48.85
73700;BME280;62005;50.082;8.988;2023-04-24T08:58:19;99511.41;;;16.62;48.20
73700;BME280;62005;50.082;8.988;2023-04-24T09:00:48;99486.38;;;16.50;48.48
73700;BME280;62005;50.082;8.988;2023-04-24T09:03:16;99494.56;;;16.50;48.71
73700;BME280;62005;50.082;8.988;2023-04-24T09:05:56;99467.16;;;16.21;48.63
73700;BME280;62005;50.082;8.988;2023-04-24T09:08:31;99444.63;;;16.01;48.65
73700;BME280;62005;50.082;8.988;2023-04-24T09:10:57;99480.06;;;16.01;48.05
73700;BME280;62005;50.082;8.988;2023-04-24T09:13:28;99496.44;;;15.96;48.47
73700;BME280;62005;50.082;8.988;2023-04-24T09:15:54;99469.28;;;15.65;49.46
73700;BME280;62005;50.082;8.988;2023-04-24T09:18:30;99467.69;;;15.54;50.63
73700;BME280;62005;50.082;8.988;2023-04-24T09:21:34;99470.69;;;15.53;49.70
73700;BME280;62005;50.082;8.988;2023-04-24T09:24:09;99498.75;;;15.53;50.75
73700;BME280;62005;50.082;8.988;2023-04-24T09:26:46;99496.88;;;15.39;50.34
73700;BME280;62005;50.082;8.988;2023-04-24T09:29:17;99518.91;;;15.37;50.91
73700;BME280;62005;50.082;8.988;2023-04-24T09:31:44;99540.13;;;15.35;51.94
73700;BME280;62005;50.082;8.988;2023-04-24T09:34:13;99505.84;;;15.04;51.54
73700;BME280;62005;50.082;8.988;2023-04-24T09:36:42;99489.25;;;14.91;52.27
73700;BME280;62005;50.082;8.988;2023-04-24T09:39:12;99531.44;;;15.03;51.91
73700;BME280;62005;50.082;8.988;2023-04-24T09:41:54;99503.13;;;14.79;51.63
73700;BME280;62005;50.082;8.988;2023-04-24T09:44:27;99509.09;;;14.76;52.53
73700;BME280;62005;50.082;8.988;2023-04-24T09:47:04;99521.63;;;14.77;52.77
73700;BME280;62005;50.082;8.988;2023-04-24T09:49:39;99538.50;;;14.84;52.48
73700;BME280;62005;50.082;8.988;2023-04-24T09:52:12;99518.34;;;14.65;52.09
73700;BME280;62005;50.082;8.988;2023-04-24T09:54:38;99517.25;;;14.66;53.27
73700;BME280;62005;50.082;8.988;2023-04-24T09:57:11;99561.94;;;14.95;52.93
73700;BME280;62005;50.082;8.988;2023-04-24T09:59:42;99522.44;;;14.58;53.70
73700;BME280;62005;50.082;8.988;2023-04-24T10:02:23;99528.94;;;14.62;53.38
73700;BME280;62005;50.082;8.988;2023-04-24T10:04:57;99556.44;;;14.65;52.36
73700;BME280;62005;50.082;8.988;2023-04-24T10:07:40;99593.47;;;14.81;53.23
73700;BME280;62005;50.082;8.988;2023-04-24T10:10:06;99579.03;;;14.66;53.36
73700;BME280;62005;50.082;8.988;2023-04-24T10:12:43;99594.53;;;14.75;54.41
73700;BME280;62005;50.082;8.988;2023-04-24T10:29:24;99547.72;;;14.63;53.69
73700;BME280;62005;50.082;8.988;2023-04-24T10:41:55;99608.75;;;15.12;53.81
73700;BME280;62005;50.082;8.988;2023-04-24T10:44:24;99612.00;;;15.09;53.87
73700;BME280;62005;50.082;8.988;2023-04-24T10:46:53;99610.94;;;15.05;53.78
73700;BME280;62005;50.082;8.988;2023-04-24T10:59:37;99602.59;;;14.40;58.35
73700;BME280;62005;50.082;8.988;2023-04-24T11:09:09;99610.66;;;14.25;57.17
73700;BME280;62005;50.082;8.988;2023-04-24T11:11:46;99604.41;;;14.24;56.92
73700;BME280;62005;50.082;8.988;2023-04-24T11:14:59;99650.25;;;14.53;58.00
73700;BME280;62005;50.082;8.988;2023-04-24T11:28:55;99649.75;;;14.19;60.55
73700;BME280;62005;50.082;8.988;2023-04-24T11:31:37;99674.34;;;14.34;60.04
73700;BME280;62005;50.082;8.988;2023-04-24T11:38:05;99671.66;;;14.39;59.92
73700;BME280;62005;50.082;8.988;2023-04-24T11:40:53;99670.00;;;14.38;60.32
73700;BME280;62005;50.082;8.988;2023-04-24T11:50:28;99615.47;;;14.08;61.02
73700;BME280;62005;50.082;8.988;2023-04-24T12:11:00;99608.41;;;14.74;56.83
73700;BME280;62005;50.082;8.988;2023-04-24T12:13:31;99668.38;;;15.24;55.63
73700;BME280;62005;50.082;8.988;2023-04-24T12:30:50;99665.75;;;15.74;54.19
73700;BME280;62005;50.082;8.988;2023-04-24T12:33:31;99673.63;;;15.81;54.45
73700;BME280;62005;50.082;8.988;2023-04-24T12:35:57;99662.72;;;15.81;55.16
73700;BME280;62005;50.082;8.988;2023-04-24T12:38:23;99681.81;;;15.96;56.24
73700;BME280;62005;50.082;8.988;2023-04-24T12:41:08;99666.53;;;16.00;55.35
73700;BME280;62005;50.082;8.988;2023-04-24T12:43:34;99648.53;;;15.89;55.89
73700;BME280;62005;50.082;8.988;2023-04-24T12:56:44;99689.94;;;16.31;53.97
73700;BME280;62005;50.082;8.988;2023-04-24T12:59:36;99654.53;;;15.96;55.17
73700;BME280;62005;50.082;8.988;2023-04-24T13:02:01;99682.34;;;16.13;54.95
73700;BME280;62005;50.082;8.988;2023-04-24T13:04:27;99684.81;;;16.04;52.96
73700;BME280;62005;50.082;8.988;2023-04-24T13:06:53;99700.59;;;16.07;54.03
73700;BME280;62005;50.082;8.988;2023-04-24T13:09:18;99695.44;;;16.01;53.31
73700;BME280;62005;50.082;8.988;2023-04-24T13:11:43;99697.06;;;15.92;54.51
73700;BME280;62005;50.082;8.988;2023-04-24T13:21:36;99645.59;;;15.50;55.03
73700;BME280;62005;50.082;8.988;2023-04-24T13:24:01;99674.47;;;15.61;54.67
73700;BME280;62005;50.082;8.988;2023-04-24T13:26:26;99675.28;;;15.61;55.37
73700;BME280;62005;50.082;8.988;2023-04-24T13:29:03;99654.03;;;15.53;55.08
73700;BME280;62005;50.082;8.988;2023-04-24T13:31:41;99665.75;;;15.69;55.78
73700;BME280;62005;50.082;8.988;2023-04-24T13:38:19;99631.69;;;15.72;55.38
73700;BME280;62005;50.082;8.988;2023-04-24T13:41:47;99662.72;;;15.91;53.91
73700;BME280;62005;50.082;8.988;2023-04-24T13:44:42;99702.47;;;16.22;55.27
73700;BME280;62005;50.082;8.988;2023-04-24T13:47:21;99664.88;;;15.99;55.40
73700;BME280;62005;50.082;8.988;2023-04-24T13:56:40;99658.38;;;15.95;54.18
73700;BME280;62005;50.082;8.988;2023-04-24T13:59:05;99636.03;;;15.78;54.50
73700;BME280;62005;50.082;8.988;2023-04-24T14:02:00;99642.03;;;15.85;55.35
73700;BME280;62005;50.082;8.988;2023-04-24T14:07:46;99672.56;;;15.77;53.07
73700;BME280;62005;50.082;8.988;2023-04-24T14:21:31;99665.38;;;15.05;58.33
73700;BME280;62005;50.082;8.988;2023-04-24T14:31:46;99657.19;;;15.00;58.23
73700;BME280;62005;50.082;8.988;2023-04-24T14:34:35;99716.88;;;15.27;57.80
73700;BME280;62005;50.082;8.988;2023-04-24T14:37:08;99726.41;;;15.29;58.09
73700;BME280;62005;50.082;8.988;2023-04-24T14:40:03;99665.31;;;14.85;57.55
73700;BME280;62005;50.082;8.988;2023-04-24T14:42:34;99650.03;;;14.79;56.51
73700;BME280;62005;50.082;8.988;2023-04-24T14:45:14;99686.00;;;14.86;57.21
73700;BME280;62005;50.082;8.988;2023-04-24T14:48:37;99690.91;;;14.94;56.71
73700;BME280;62005;50.082;8.988;2023-04-24T14:51:31;99726.41;;;15.24;56.98
73700;BME280;62005;50.082;8.988;2023-04-24T14:54:05;99730.78;;;15.25;57.46
73700;BME280;62005;50.082;8.988;2023-04-24T14:56:59;99720.94;;;15.24;56.78
73700;BME280;62005;50.082;8.988;2023-04-24T14:59:32;99703.53;;;15.15;57.38
73700;BME280;62005;50.082;8.988;2023-04-24T15:02:20;99644.59;;;14.79;57.90
73700;BME280;62005;50.082;8.988;2023-04-24T15:05:22;99724.78;;;15.28;58.17
73700;BME280;62005;50.082;8.988;2023-04-24T15:11:33;99686.03;;;15.01;54.55
73700;BME280;62005;50.082;8.988;2023-04-24T15:14:32;99688.75;;;14.96;54.71
73700;BME280;62005;50.082;8.988;2023-04-24T15:17:26;99660.41;;;14.77;55.11
73700;BME280;62005;50.082;8.988;2023-04-24T15:23:39;99702.59;;;14.90;55.69
73700;BME280;62005;50.082;8.988;2023-04-24T15:26:05;99746.50;;;15.08;56.43
73700;BME280;62005;50.082;8.988;2023-04-24T15:29:04;99676.41;;;14.69;60.59
73700;BME280;62005;50.082;8.988;2023-04-24T15:31:29;99699.06;;;14.89;62.61
73700;BME280;62005;50.082;8.988;2023-04-24T15:41:05;99697.97;;;14.85;60.64
73700;BME280;62005;50.082;8.988;2023-04-24T15:43:30;99684.84;;;14.67;59.41
73700;BME280;62005;50.082;8.988;2023-04-24T15:45:59;99715.38;;;14.89;60.84
73700;BME280;62005;50.082;8.988;2023-04-24T15:51:47;99701.97;;;14.68;61.04
73700;BME280;62005;50.082;8.988;2023-04-24T16:00:53;99713.66;;;14.68;57.69
73700;BME280;62005;50.082;8.988;2023-04-24T16:03:56;99746.91;;;14.75;55.88
73700;BME280;62005;50.082;8.988;2023-04-24T16:10:06;99742.53;;;14.69;55.32
73700;BME280;62005;50.082;8.988;2023-04-24T16:13:02;99720.59;;;14.39;55.77
73700;BME280;62005;50.082;8.988;2023-04-24T16:25:16;99701.97;;;14.21;55.19
73700;BME280;62005;50.082;8.988;2023-04-24T16:31:09;99745.63;;;14.41;55.69
73700;BME280;62005;50.082;8.988;2023-04-24T16:33:34;99705.19;;;14.13;55.76
73700;BME280;62005;50.082;8.988;2023-04-24T16:36:33;99715.78;;;14.14;55.93
73700;BME280;62005;50.082;8.988;2023-04-24T16:46:35;99683.81;;;13.90;56.09
73700;BME280;62005;50.082;8.988;2023-04-24T16:52:49;99717.09;;;14.07;55.39
73700;BME280;62005;50.082;8.988;2023-04-24T16:58:38;99700.41;;;13.93;54.93
73700;BME280;62005;50.082;8.988;2023-04-24T17:01:26;99696.31;;;13.91;53.56
73700;BME280;62005;50.082;8.988;2023-04-24T17:04:27;99763.47;;;14.27;54.99
73700;BME280;62005;50.082;8.988;2023-04-24T17:07:27;99746.50;;;14.15;55.29
73700;BME280;62005;50.082;8.988;2023-04-24T17:10:14;99705.56;;;13.90;54.15
73700;BME280;62005;50.082;8.988;2023-04-24T17:13:04;99720.81;;;13.96;54.12
73700;BME280;62005;50.082;8.988;2023-04-24T17:19:14;99768.84;;;14.22;55.20
73700;BME280;62005;50.082;8.988;2023-04-24T17:31:51;99765.50;;;14.15;54.64
73700;BME280;62005;50.082;8.988;2023-04-24T17:34:35;99769.31;;;14.14;55.47
73700;BME280;62005;50.082;8.988;2023-04-24T17:37:13;99723.44;;;13.86;54.28
73700;BME280;62005;50.082;8.988;2023-04-24T17:40:11;99736.47;;;13.84;55.43
73700;BME280;62005;50.082;8.988;2023-04-24T17:46:15;99751.75;;;13.90;56.10
73700;BME280;62005;50.082;8.988;2023-04-24T17:48:41;99741.38;;;13.87;55.37
73700;BME280;62005;50.082;8.988;2023-04-24T17:51:06;99754.47;;;13.90;55.79
73700;BME280;62005;50.082;8.988;2023-04-24T17:53:52;99781.22;;;14.03;56.06
73700;BME280;62005;50.082;8.988;2023-04-24T17:59:45;99777.56;;;13.92;56.00
73700;BME280;62005;50.082;8.988;2023-04-24T18:02:11;99764.72;;;13.83;56.24
73700;BME280;62005;50.082;8.988;2023-04-24T18:04:36;99763.59;;;13.79;56.53
73700;BME280;62005;50.082;8.988;2023-04-24T18:07:24;99796.91;;;13.96;56.23
73700;BME280;62005;50.082;8.988;2023-04-24T18:19:50;99758.38;;;13.46;56.77
73700;BME280;62005;50.082;8.988;2023-04-24T18:26:17;99817.72;;;13.59;58.55
73700;BME280;62005;50.082;8.988;2023-04-24T18:29:03;99828.81;;;13.57;59.20
73700;BME280;62005;50.082;8.988;2023-04-24T18:31:49;99767.78;;;13.12;59.61
73700;BME280;62005;50.082;8.988;2023-04-24T18:34:44;99809.66;;;13.21;60.64
73700;BME280;62005;50.082;8.988;2023-04-24T18:43:54;99819.28;;;13.06;62.23
73700;BME280;62005;50.082;8.988;2023-04-24T19:03:54;99808.34;;;12.63;66.13
73700;BME280;62005;50.082;8.988;2023-04-24T19:07:03;99859.72;;;12.91;65.79
73700;BME280;62005;50.082;8.988;2023-04-24T19:19:39;99869.22;;;12.72;67.01
73700;BME280;62005;50.082;8.988;2023-04-24T19:22:38;99789.50;;;12.19;66.74
73700;BME280;62005;50.082;8.988;2023-04-24T19:25:14;99859.47;;;12.55;66.90
73700;BME280;62005;50.082;8.988;2023-04-24T19:31:05;99827.28;;;12.25;67.17
73700;BME280;62005;50.082;8.988;2023-04-24T19:34:12;99821.44;;;12.17;67.96
73700;BME280;62005;50.082;8.988;2023-04-24T19:37:23;99883.44;;;12.46;68.18
73700;BME280;62005;50.082;8.988;2023-04-24T19:46:35;99819.88;;;12.04;67.59
73700;BME280;62005;50.082;8.988;2023-04-24T19:49:32;99802.28;;;11.90;68.57
73700;BME280;62005;50.082;8.988;2023-04-24T19:52:16;99868.59;;;12.32;68.84
73700;BME280;62005;50.082;8.988;2023-04-24T19:54:52;99834.00;;;12.06;67.90
73700;BME280;62005;50.082;8.988;2023-04-24T19:57:17;99836.97;;;12.05;68.90
73700;BME280;62005;50.082;8.988;2023-04-24T20:05:49;99832.19;;;11.95;71.34
73700;BME280;62005;50.082;8.988;2023-04-24T20:08:45;99871.63;;;12.19;72.38
73700;BME280;62005;50.082;8.988;2023-04-24T20:11:34;99846.97;;;12.04;72.65
73700;BME280;62005;50.082;8.988;2023-04-24T20:25:00;99811.03;;;11.64;73.99
73700;BME280;62005;50.082;8.988;2023-04-24T20:34:34;99846.44;;;11.74;74.20
73700;BME280;62005;50.082;8.988;2023-04-24T20:37:00;99854.63;;;11.79;75.04
73700;BME280;62005;50.082;8.988;2023-04-24T20:39:35;99821.16;;;11.57;74.96
73700;BME280;62005;50.082;8.988;2023-04-24T20:42:04;99864.50;;;11.85;75.47
73700;BME280;62005;50.082;8.988;2023-04-24T20:44:29;99865.56;;;11.84;75.32
73700;BME280;62005;50.082;8.988;2023-04-24T20:46:55;99877.31;;;11.90;75.15
73700;BME280;62005;50.082;8.988;2023-04-24T20:49:23;99826.66;;;11.62;74.83
73700;BME280;62005;50.082;8.988;2023-04-24T20:52:00;99822.22;;;11.56;74.92
73700;BME280;62005;50.082;8.988;2023-04-24T20:54:36;99867.09;;;11.80;75.57
73700;BME280;62005;50.082;8.988;2023-04-24T20:57:41;99859.38;;;11.72;75.20
73700;BME280;62005;50.082;8.988;2023-04-24T21:00:15;99814.00;;;11.51;76.25
73700;BME280;62005;50.082;8.988;2023-04-24T21:02:41;99854.53;;;11.74;76.14
73700;BME280;62005;50.082;8.988;2023-04-24T21:05:06;99851.84;;;11.74;75.63
73700;BME280;62005;50.082;8.988;2023-04-24T21:07:32;99847.91;;;11.65;75.92
73700;BME280;62005;50.082;8.988;2023-04-24T21:10:00;99800.69;;;11.33;75.84
73700;BME280;62005;50.082;8.988;2023-04-24T21:12:29;99812.19;;;11.40;75.33
73700;BME280;62005;50.082;8.988;2023-04-24T21:15:06;99865.28;;;11.69;75.65
73700;BME280;62005;50.082;8.988;2023-04-24T21:17:51;99824.97;;;11.44;76.56
73700;BME280;62005;50.082;8.988;2023-04-24T21:20:17;99854.22;;;11.59;75.88
73700;BME280;62005;50.082;8.988;2023-04-24T21:22:48;99813.00;;;11.40;75.92
73700;BME280;62005;50.082;8.988;2023-04-24T21:25:18;99793.53;;;11.27;75.61
73700;BME280;62005;50.082;8.988;2023-04-24T21:27:46;99845.50;;;11.57;75.44
73700;BME280;62005;50.082;8.988;2023-04-24T21:30:12;99845.22;;;11.53;74.93
73700;BME280;62005;50.082;8.988;2023-04-24T21:32:46;99812.56;;;11.32;75.95
73700;BME280;62005;50.082;8.988;2023-04-24T21:35:21;99833.84;;;11.40;75.59
73700;BME280;62005;50.082;8.988;2023-04-24T21:37:58;99817.88;;;11.27;76.35